createdAt,value
2022-12-19T00:01:37.486Z,2.51
2022-12-19T00:04:08.117Z,2.52
2022-12-19T00:06:37.798Z,2.52
2022-12-19T00:09:05.260Z,2.52
2022-12-19T00:11:32.569Z,2.50
2022-12-19T00:13:59.728Z,2.52
2022-12-19T00:16:27.759Z,2.56
2022-12-19T00:18:55.815Z,2.55
2022-12-19T00:21:23.982Z,2.57
2022-12-19T00:23:51.244Z,2.59
2022-12-19T00:26:19.682Z,2.60
2022-12-19T00:28:48.764Z,2.61
2022-12-19T00:31:17.345Z,2.61
2022-12-19T00:33:46.918Z,2.60
2022-12-19T00:36:14.976Z,2.59
2022-12-19T00:38:44.061Z,2.59
2022-12-19T00:41:14.229Z,2.60
2022-12-19T00:43:44.061Z,2.59
2022-12-19T00:46:12.733Z,2.57
2022-12-19T00:48:40.768Z,2.57
2022-12-19T00:51:10.561Z,2.55
2022-12-19T00:53:38.421Z,2.52
2022-12-19T00:56:06.692Z,2.53
2022-12-19T00:58:35.669Z,2.54
2022-12-19T01:01:09.983Z,2.55
2022-12-19T01:03:36.861Z,2.54
2022-12-19T01:06:04.011Z,2.56
2022-12-19T01:08:31.793Z,2.58
2022-12-19T01:10:58.660Z,2.57
2022-12-19T01:13:26.203Z,2.56
2022-12-19T01:15:52.921Z,2.53
2022-12-19T01:18:19.688Z,2.53
2022-12-19T01:20:47.757Z,2.56
2022-12-19T01:23:16.127Z,2.59
2022-12-19T01:25:45.265Z,2.56
2022-12-19T01:28:14.101Z,2.55
2022-12-19T01:30:41.931Z,2.52
2022-12-19T01:33:12.591Z,2.51
2022-12-19T01:35:39.687Z,2.49
2022-12-19T01:38:07.805Z,2.48
2022-12-19T01:40:35.984Z,2.49
2022-12-19T01:43:03.864Z,2.52
2022-12-19T01:45:34.675Z,2.50
2022-12-19T01:48:02.192Z,2.49
2022-12-19T01:50:38.097Z,2.46
2022-12-19T01:53:09.669Z,2.47
2022-12-19T01:55:37.320Z,2.42
2022-12-19T01:58:04.223Z,2.36
2022-12-19T02:00:31.378Z,2.31
2022-12-19T02:03:07.791Z,2.27
2022-12-19T02:05:43.808Z,2.32
2022-12-19T02:08:11.128Z,2.38
2022-12-19T02:10:37.871Z,2.33
2022-12-19T02:13:06.578Z,2.33
2022-12-19T02:15:35.533Z,2.32
2022-12-19T02:18:12.509Z,2.35
2022-12-19T02:20:39.485Z,2.37
2022-12-19T02:23:21.428Z,2.37
2022-12-19T02:25:51.997Z,2.35
2022-12-19T02:28:27.058Z,2.38
2022-12-19T02:30:58.142Z,2.39
2022-12-19T02:33:27.779Z,2.42
2022-12-19T02:36:04.134Z,2.46
2022-12-19T02:38:51.389Z,2.49
2022-12-19T02:41:24.909Z,2.44
2022-12-19T02:43:58.761Z,2.41
2022-12-19T02:46:30.103Z,2.44
2022-12-19T02:48:57.285Z,2.45
2022-12-19T02:51:24.014Z,2.45
2022-12-19T02:53:51.831Z,2.43
2022-12-19T02:56:25.992Z,2.41
2022-12-19T02:59:12.885Z,2.43
2022-12-19T03:01:47.755Z,2.45
2022-12-19T03:04:18.790Z,2.47
2022-12-19T03:06:49.701Z,2.47
2022-12-19T03:09:35.414Z,2.48
2022-12-19T03:12:10.642Z,2.50
2022-12-19T03:14:40.109Z,2.50
2022-12-19T03:17:08.164Z,2.50
2022-12-19T03:19:38.375Z,2.53
2022-12-19T03:22:05.291Z,2.54
2022-12-19T03:24:32.088Z,2.55
2022-12-19T03:27:17.743Z,2.56
2022-12-19T03:29:47.873Z,2.58
2022-12-19T03:32:16.160Z,2.58
2022-12-19T03:34:42.878Z,2.57
2022-12-19T03:37:15.238Z,2.56
2022-12-19T03:39:43.950Z,2.55
2022-12-19T03:42:30.012Z,2.53
2022-12-19T03:45:00.684Z,2.54
2022-12-19T03:47:30.373Z,2.55
2022-12-19T03:49:57.185Z,2.57
2022-12-19T03:52:44.184Z,2.57
2022-12-19T03:55:18.372Z,2.56
2022-12-19T03:57:53.921Z,2.56
2022-12-19T04:00:22.049Z,2.55
2022-12-19T04:02:50.202Z,2.52
2022-12-19T04:05:22.062Z,2.48
2022-12-19T04:07:50.215Z,2.45
2022-12-19T04:10:19.381Z,2.48
2022-12-19T04:12:58.114Z,2.50
2022-12-19T04:15:32.910Z,2.50
2022-12-19T04:18:01.679Z,2.50
2022-12-19T04:20:28.787Z,2.49
2022-12-19T04:23:04.605Z,2.48
2022-12-19T04:25:34.995Z,2.50
2022-12-19T04:28:31.034Z,2.52
2022-12-19T04:30:58.309Z,2.52
2022-12-19T04:33:25.205Z,2.51
2022-12-19T04:35:52.090Z,2.48
2022-12-19T04:38:18.797Z,2.47
2022-12-19T04:40:45.636Z,2.45
2022-12-19T04:43:12.417Z,2.44
2022-12-19T04:45:42.813Z,2.45
2022-12-19T04:48:10.208Z,2.47
2022-12-19T04:50:36.985Z,2.47
2022-12-19T04:53:04.135Z,2.47
2022-12-19T04:55:30.872Z,2.49
2022-12-19T04:57:58.630Z,2.50
2022-12-19T05:00:25.307Z,2.50
2022-12-19T05:02:52.569Z,2.50
2022-12-19T05:05:19.393Z,2.52
2022-12-19T05:07:47.160Z,2.51
2022-12-19T05:10:13.977Z,2.52
2022-12-19T05:12:40.844Z,2.52
2022-12-19T05:15:07.835Z,2.54
2022-12-19T05:17:34.583Z,2.55
2022-12-19T05:20:01.331Z,2.55
2022-12-19T05:22:28.274Z,2.55
2022-12-19T05:24:54.970Z,2.54
2022-12-19T05:27:22.957Z,2.55
2022-12-19T05:29:50.881Z,2.56
2022-12-19T05:32:17.920Z,2.56
2022-12-19T05:34:44.699Z,2.56
2022-12-19T05:37:12.378Z,2.55
2022-12-19T05:39:39.070Z,2.56
2022-12-19T05:42:09.669Z,2.56
2022-12-19T05:44:39.073Z,2.55
2022-12-19T05:47:05.882Z,2.52
2022-12-19T05:49:34.279Z,2.50
2022-12-19T05:52:00.916Z,2.50
2022-12-19T05:54:28.747Z,2.52
2022-12-19T05:56:55.872Z,2.55
2022-12-19T05:59:22.714Z,2.55
2022-12-19T06:01:49.536Z,2.53
2022-12-19T06:04:16.472Z,2.52
2022-12-19T06:06:43.189Z,2.53
2022-12-19T06:09:09.946Z,2.51
2022-12-19T06:11:36.611Z,2.54
2022-12-19T06:14:03.520Z,2.56
2022-12-19T06:16:30.368Z,2.58
2022-12-19T06:18:57.607Z,2.60
2022-12-19T06:21:24.790Z,2.61
2022-12-19T06:23:51.675Z,2.64
2022-12-19T06:26:20.515Z,2.65
2022-12-19T06:28:48.609Z,2.65
2022-12-19T06:31:16.004Z,2.67
2022-12-19T06:33:43.753Z,2.68
2022-12-19T06:36:12.443Z,2.71
2022-12-19T06:38:39.297Z,2.73
2022-12-19T06:41:24.647Z,2.72
2022-12-19T06:43:53.512Z,2.69
2022-12-19T06:46:20.949Z,2.75
2022-12-19T06:48:48.137Z,2.74
2022-12-19T06:51:14.965Z,2.75
2022-12-19T06:53:41.733Z,2.74
2022-12-19T06:56:08.592Z,2.75
2022-12-19T06:58:35.702Z,2.75
2022-12-19T07:01:03.312Z,2.71
2022-12-19T07:03:32.520Z,2.53
2022-12-19T07:05:59.489Z,2.74
2022-12-19T07:08:29.904Z,2.72
2022-12-19T07:10:58.791Z,2.71
2022-12-19T07:13:25.907Z,2.73
2022-12-19T07:15:54.737Z,2.72
2022-12-19T07:18:21.455Z,2.73
2022-12-19T07:20:48.307Z,2.74
2022-12-19T07:23:18.236Z,2.78
2022-12-19T07:25:45.060Z,2.82
2022-12-19T07:28:11.961Z,2.85
2022-12-19T07:30:38.775Z,2.86
2022-12-19T07:33:05.562Z,2.88
2022-12-19T07:35:32.737Z,2.89
2022-12-19T07:38:06.532Z,2.91
2022-12-19T07:40:33.810Z,2.94
2022-12-19T07:43:01.602Z,3.00
2022-12-19T07:45:29.678Z,3.00
2022-12-19T07:48:03.279Z,3.02
2022-12-19T07:50:32.813Z,3.06
2022-12-19T07:52:59.673Z,3.09
2022-12-19T07:55:27.022Z,3.11
2022-12-19T07:57:54.031Z,3.12
2022-12-19T08:00:22.111Z,3.12
2022-12-19T08:02:48.928Z,3.14
2022-12-19T08:05:15.862Z,3.16
2022-12-19T08:07:42.559Z,3.17
2022-12-19T08:10:11.449Z,3.22
2022-12-19T08:12:38.444Z,3.25
2022-12-19T08:15:06.261Z,3.28
2022-12-19T08:17:34.676Z,3.33
2022-12-19T08:20:01.595Z,3.34
2022-12-19T08:22:29.575Z,3.37
2022-12-19T08:24:57.822Z,3.43
2022-12-19T08:27:25.325Z,3.46
2022-12-19T08:29:53.090Z,3.46
2022-12-19T08:32:21.422Z,3.41
2022-12-19T08:34:49.674Z,3.43
2022-12-19T08:37:16.704Z,3.51
2022-12-19T08:39:43.731Z,3.56
2022-12-19T08:42:10.532Z,3.60
2022-12-19T08:44:37.791Z,3.64
2022-12-19T08:47:04.841Z,3.68
2022-12-19T08:49:32.070Z,3.75
2022-12-19T08:51:58.969Z,3.73
2022-12-19T08:54:27.268Z,3.70
2022-12-19T08:56:54.328Z,3.65
2022-12-19T08:59:30.212Z,3.63
2022-12-19T09:01:59.063Z,3.60
2022-12-19T09:05:59.964Z,3.60
2022-12-19T09:07:15.696Z,3.65
2022-12-19T09:09:42.966Z,3.70
2022-12-19T09:12:10.712Z,3.74
2022-12-19T09:14:37.554Z,3.72
2022-12-19T09:17:05.007Z,3.68
2022-12-19T09:19:32.310Z,3.67
2022-12-19T09:22:00.851Z,3.72
2022-12-19T09:24:27.589Z,3.74
2022-12-19T09:26:55.208Z,3.77
2022-12-19T09:29:22.441Z,3.74
2022-12-19T09:31:56.427Z,3.74
2022-12-19T09:34:37.034Z,3.61
2022-12-19T09:37:06.663Z,3.59
2022-12-19T09:39:34.496Z,3.60
2022-12-19T09:42:19.732Z,3.59
2022-12-19T09:44:46.605Z,3.59
2022-12-19T09:47:18.278Z,3.63
2022-12-19T09:49:46.420Z,3.66
2022-12-19T09:52:13.155Z,3.68
2022-12-19T09:55:21.411Z,3.73
2022-12-19T09:58:12.560Z,3.72
2022-12-19T10:00:43.283Z,3.75
2022-12-19T10:03:16.412Z,3.82
2022-12-19T10:07:05.360Z,3.90
2022-12-19T10:10:13.759Z,4.03
2022-12-19T10:12:37.496Z,4.15
2022-12-19T10:14:30.641Z,4.15
2022-12-19T10:20:21.938Z,4.07
2022-12-19T10:22:57.341Z,4.11
2022-12-19T10:25:42.725Z,4.10
2022-12-19T10:28:36.806Z,4.02
2022-12-19T10:31:17.234Z,3.99
2022-12-19T10:34:03.166Z,3.97
2022-12-19T10:37:04.357Z,3.95
2022-12-19T10:39:26.070Z,4.00
2022-12-19T10:41:56.570Z,4.05
2022-12-19T10:44:28.105Z,4.14
2022-12-19T10:46:55.031Z,4.14
2022-12-19T10:49:23.229Z,4.03
2022-12-19T10:51:59.137Z,3.89
2022-12-19T10:54:38.639Z,3.86
2022-12-19T10:57:24.843Z,3.97
2022-12-19T11:00:06.223Z,4.06
2022-12-19T11:02:42.275Z,4.11
2022-12-19T11:05:30.187Z,4.10
2022-12-19T11:08:00.096Z,3.97
2022-12-19T11:12:03.614Z,4.11
2022-12-19T11:19:52.795Z,4.08
2022-12-19T11:21:32.820Z,4.09
2022-12-19T11:29:15.596Z,4.04
2022-12-19T11:29:32.068Z,4.07
2022-12-19T11:30:48.667Z,4.04
2022-12-19T11:30:49.026Z,4.04
2022-12-19T11:34:13.661Z,3.94
2022-12-19T11:36:46.525Z,3.91
2022-12-19T11:39:17.974Z,3.91
2022-12-19T11:41:49.058Z,3.80
2022-12-19T11:44:26.364Z,3.81
2022-12-19T11:47:06.808Z,3.82
2022-12-19T11:49:46.177Z,3.80
2022-12-19T11:55:22.103Z,3.76
2022-12-19T11:57:49.025Z,3.72
2022-12-19T12:00:21.022Z,3.78
2022-12-19T12:03:17.408Z,3.80
2022-12-19T12:05:45.021Z,3.77
2022-12-19T12:09:23.156Z,3.72
2022-12-19T12:15:09.423Z,3.76
2022-12-19T12:17:01.923Z,3.91
2022-12-19T12:22:00.961Z,3.83
2022-12-19T12:31:27.852Z,3.91
2022-12-19T12:31:51.387Z,3.80
2022-12-19T12:31:56.041Z,3.91
2022-12-19T12:32:00.349Z,3.90
2022-12-19T12:35:30.232Z,3.77
2022-12-19T12:40:53.849Z,3.75
2022-12-19T12:43:42.259Z,3.75
2022-12-19T12:46:35.534Z,3.73
2022-12-19T12:49:04.206Z,3.80
2022-12-19T12:51:33.345Z,3.80
2022-12-19T12:54:05.215Z,3.78
2022-12-19T12:56:32.492Z,3.81
2022-12-19T12:59:04.563Z,3.78
2022-12-19T13:01:40.332Z,3.81
2022-12-19T13:04:19.960Z,3.73
2022-12-19T13:06:50.455Z,3.78
2022-12-19T13:09:20.352Z,3.57
2022-12-19T13:12:05.812Z,3.40
2022-12-19T13:14:32.606Z,3.36
2022-12-19T13:16:59.855Z,3.39
2022-12-19T13:19:29.447Z,3.63
2022-12-19T13:22:05.203Z,3.75
2022-12-19T13:24:38.040Z,3.77
2022-12-19T13:27:25.310Z,3.78
2022-12-19T13:30:01.238Z,3.61
2022-12-19T13:32:33.581Z,3.73
2022-12-19T13:35:50.683Z,3.66
2022-12-19T13:39:59.748Z,3.59
2022-12-19T13:40:55.643Z,3.63
2022-12-19T13:43:48.284Z,3.72
2022-12-19T13:46:34.073Z,3.77
2022-12-19T13:49:07.004Z,3.80
2022-12-19T13:51:46.142Z,3.72
2022-12-19T13:54:34.724Z,3.68
2022-12-19T13:57:08.157Z,3.64
2022-12-19T13:59:40.189Z,3.60
2022-12-19T14:02:44.704Z,3.42
2022-12-19T14:05:48.459Z,3.64
2022-12-19T14:08:13.815Z,3.67
2022-12-19T14:11:34.561Z,3.70
2022-12-19T14:14:01.306Z,3.73
2022-12-19T14:16:43.905Z,3.68
2022-12-19T14:19:38.255Z,3.63
2022-12-19T14:22:24.757Z,3.60
2022-12-19T14:25:45.133Z,3.63
2022-12-19T14:28:24.867Z,3.68
2022-12-19T14:30:41.130Z,3.70
2022-12-19T14:33:44.325Z,3.67
2022-12-19T14:36:05.957Z,3.59
2022-12-19T14:39:22.536Z,3.52
2022-12-19T14:41:47.226Z,3.52
2022-12-19T14:51:42.930Z,3.50
2022-12-19T14:53:17.420Z,3.51
2022-12-19T14:54:13.316Z,3.52
2022-12-19T14:54:30.697Z,3.55
2022-12-19T14:56:03.784Z,3.52
2022-12-19T14:58:54.750Z,3.50
2022-12-19T15:01:23.582Z,3.49
2022-12-19T15:04:48.409Z,3.47
2022-12-19T15:07:08.032Z,3.44
2022-12-19T15:11:07.921Z,3.47
2022-12-19T15:14:48.944Z,3.44
2022-12-19T15:15:37.853Z,3.43
2022-12-19T15:18:18.248Z,3.41
2022-12-19T15:20:45.182Z,3.39
2022-12-19T15:23:15.261Z,3.38
2022-12-19T15:28:43.915Z,3.30
2022-12-19T15:31:24.496Z,3.32
2022-12-19T15:34:32.225Z,3.33
2022-12-19T15:36:38.157Z,3.32
2022-12-19T15:39:04.976Z,3.32
2022-12-19T15:41:31.753Z,3.27
2022-12-19T15:44:06.275Z,3.29
2022-12-19T15:46:33.769Z,3.32
2022-12-19T15:49:01.350Z,3.34
2022-12-19T15:51:28.234Z,3.34
2022-12-19T15:54:08.891Z,3.36
2022-12-19T15:56:51.092Z,3.35
2022-12-19T15:59:24.461Z,3.34
2022-12-19T16:01:51.736Z,3.34
2022-12-19T16:04:18.847Z,3.33
2022-12-19T16:06:45.775Z,3.32
2022-12-19T16:09:23.586Z,3.27
2022-12-19T16:11:51.509Z,3.25
2022-12-19T16:14:19.512Z,3.28
2022-12-19T16:16:49.275Z,3.29
2022-12-19T16:19:28.099Z,3.29
2022-12-19T16:21:56.774Z,3.31
2022-12-19T16:24:23.929Z,3.32
2022-12-19T16:26:58.465Z,3.33
2022-12-19T16:29:29.442Z,3.33
2022-12-19T16:31:56.283Z,3.33
2022-12-19T16:34:24.194Z,3.32
2022-12-19T16:36:52.140Z,3.30
2022-12-19T16:39:19.024Z,3.29
2022-12-19T16:41:46.475Z,3.26
2022-12-19T16:44:20.451Z,3.24
2022-12-19T16:46:51.110Z,3.23
2022-12-19T16:49:23.058Z,3.25
2022-12-19T16:51:50.214Z,3.24
2022-12-19T16:54:17.926Z,3.25
2022-12-19T16:56:49.643Z,3.23
2022-12-19T16:59:16.502Z,3.20
2022-12-19T17:01:44.566Z,3.18
2022-12-19T17:04:21.857Z,3.19
2022-12-19T17:06:49.942Z,3.20
2022-12-19T17:09:18.520Z,3.20
2022-12-19T17:11:47.904Z,3.18
2022-12-19T17:14:25.309Z,3.17
2022-12-19T17:16:55.226Z,3.17
2022-12-19T17:19:39.074Z,3.18
2022-12-19T17:22:13.140Z,3.19
2022-12-19T17:24:41.689Z,3.21
2022-12-19T17:27:08.432Z,3.22
2022-12-19T17:29:36.824Z,3.23
2022-12-19T17:32:04.171Z,3.24
2022-12-19T17:34:32.885Z,3.26
2022-12-19T17:37:00.611Z,3.25
2022-12-19T17:39:29.135Z,3.25
2022-12-19T17:41:57.876Z,3.26
2022-12-19T17:44:24.704Z,3.26
2022-12-19T17:46:51.589Z,3.24
2022-12-19T17:49:30.323Z,3.22
2022-12-19T17:51:59.017Z,3.24
2022-12-19T17:54:26.050Z,3.25
2022-12-19T17:56:52.959Z,3.26
2022-12-19T17:59:19.697Z,3.26
2022-12-19T18:01:47.532Z,3.23
2022-12-19T18:04:15.489Z,3.22
2022-12-19T18:06:42.532Z,3.21
2022-12-19T18:09:19.878Z,3.20
2022-12-19T18:11:47.296Z,3.18
2022-12-19T18:14:14.593Z,2.97
2022-12-19T18:16:42.743Z,3.16
2022-12-19T18:19:23.569Z,3.13
2022-12-19T18:21:50.435Z,3.13
2022-12-19T18:24:17.818Z,3.16
2022-12-19T18:26:45.241Z,3.17
2022-12-19T18:29:12.044Z,3.18
2022-12-19T18:31:46.286Z,3.19
2022-12-19T18:34:19.489Z,3.20
2022-12-19T18:36:46.296Z,3.19
2022-12-19T18:39:21.622Z,3.15
2022-12-19T18:41:50.285Z,3.13
2022-12-19T18:44:17.453Z,3.14
2022-12-19T18:46:44.688Z,3.15
2022-12-19T18:49:12.797Z,3.14
2022-12-19T18:51:39.871Z,3.11
2022-12-19T18:54:19.146Z,3.10
2022-12-19T18:56:47.102Z,3.04
2022-12-19T18:59:14.312Z,3.06
2022-12-19T19:01:43.303Z,3.07
2022-12-19T19:04:12.265Z,3.10
2022-12-19T19:06:42.135Z,3.11
2022-12-19T19:09:16.563Z,3.11
2022-12-19T19:11:43.258Z,3.08
2022-12-19T19:14:10.096Z,3.10
2022-12-19T19:16:37.408Z,3.12
2022-12-19T19:19:10.668Z,3.15
2022-12-19T19:21:38.046Z,3.18
2022-12-19T19:24:10.758Z,2.95
2022-12-19T19:26:37.614Z,3.19
2022-12-19T19:29:05.154Z,3.19
2022-12-19T19:31:34.639Z,3.20
2022-12-19T19:34:05.022Z,3.20
2022-12-19T19:36:35.993Z,3.20
2022-12-19T19:39:03.120Z,3.18
2022-12-19T19:41:30.346Z,3.16
2022-12-19T19:43:57.563Z,3.16
2022-12-19T19:46:24.370Z,3.17
2022-12-19T19:48:51.734Z,3.13
2022-12-19T19:51:18.673Z,3.10
2022-12-19T19:53:45.450Z,3.11
2022-12-19T19:56:12.337Z,3.12
2022-12-19T19:58:39.210Z,3.13
2022-12-19T20:01:11.016Z,3.15
2022-12-19T20:03:40.135Z,3.16
2022-12-19T20:06:07.410Z,3.14
2022-12-19T20:08:39.850Z,3.12
2022-12-19T20:11:08.522Z,3.11
2022-12-19T20:13:35.254Z,3.11
2022-12-19T20:16:03.083Z,3.09
2022-12-19T20:18:30.526Z,3.04
2022-12-19T20:20:57.587Z,3.05
2022-12-19T20:23:25.111Z,3.07
2022-12-19T20:25:52.026Z,3.07
2022-12-19T20:28:19.290Z,3.08
2022-12-19T20:30:47.368Z,3.09
2022-12-19T20:33:14.216Z,3.10
2022-12-19T20:35:41.057Z,3.09
2022-12-19T20:38:07.809Z,3.10
2022-12-19T20:40:34.647Z,3.08
2022-12-19T20:43:01.425Z,3.06
2022-12-19T20:45:28.297Z,3.05
2022-12-19T20:47:55.495Z,3.05
2022-12-19T20:50:22.788Z,3.05
2022-12-19T20:52:49.571Z,3.05
2022-12-19T20:55:16.393Z,3.06
2022-12-19T20:57:43.137Z,3.05
2022-12-19T21:00:10.346Z,3.03
2022-12-19T21:03:16.674Z,2.99
2022-12-19T21:05:24.805Z,2.97
2022-12-19T21:07:51.623Z,2.96
2022-12-19T21:10:18.466Z,2.96
2022-12-19T21:12:47.785Z,2.97
2022-12-19T21:15:14.950Z,2.94
2022-12-19T21:17:41.748Z,2.93
2022-12-19T21:20:08.701Z,2.91
2022-12-19T21:22:35.551Z,2.86
2022-12-19T21:25:02.916Z,2.84
2022-12-19T21:27:29.623Z,2.81
2022-12-19T21:29:56.493Z,2.79
2022-12-19T21:32:23.352Z,2.77
2022-12-19T21:34:52.312Z,2.73
2022-12-19T21:37:19.038Z,2.69
2022-12-19T21:39:45.896Z,2.66
2022-12-19T21:42:12.613Z,2.62
2022-12-19T21:44:39.455Z,2.59
2022-12-19T21:47:06.209Z,2.55
2022-12-19T21:49:32.997Z,2.56
2022-12-19T21:51:59.728Z,2.56
2022-12-19T21:54:26.444Z,2.58
2022-12-19T21:56:53.144Z,2.57
2022-12-19T21:59:19.894Z,2.56
2022-12-19T22:01:46.802Z,2.58
2022-12-19T22:04:15.777Z,2.60
2022-12-19T22:06:42.585Z,2.61
2022-12-19T22:09:12.267Z,2.61
2022-12-19T22:11:39.108Z,2.61
2022-12-19T22:14:06.529Z,2.61
2022-12-19T22:16:34.847Z,2.61
2022-12-19T22:19:01.635Z,2.60
2022-12-19T22:21:28.478Z,2.59
2022-12-19T22:23:58.346Z,2.58
2022-12-19T22:26:25.815Z,2.56
2022-12-19T22:28:53.532Z,2.57
2022-12-19T22:31:27.852Z,2.59
2022-12-19T22:34:04.968Z,2.58
2022-12-19T22:36:33.033Z,2.59
2022-12-19T22:39:00.524Z,2.59
2022-12-19T22:41:28.071Z,2.58
2022-12-19T22:43:55.133Z,2.57
2022-12-19T22:46:42.127Z,2.55
2022-12-19T22:49:13.865Z,2.55
2022-12-19T22:51:42.377Z,2.53
2022-12-19T22:54:10.340Z,2.51
2022-12-19T22:56:37.813Z,2.51
2022-12-19T22:59:06.401Z,2.50
2022-12-19T23:01:35.396Z,2.49
2022-12-19T23:04:02.871Z,2.48
2022-12-19T23:06:31.382Z,2.48
2022-12-19T23:08:58.479Z,2.46
2022-12-19T23:11:27.335Z,2.46
2022-12-19T23:13:54.206Z,2.45
2022-12-19T23:16:21.486Z,2.45
2022-12-19T23:18:48.232Z,2.46
2022-12-19T23:21:20.066Z,2.46
2022-12-19T23:23:49.656Z,2.45
2022-12-19T23:26:21.080Z,2.42
2022-12-19T23:28:52.506Z,2.39
2022-12-19T23:31:19.735Z,2.35
2022-12-19T23:33:46.525Z,2.33
2022-12-19T23:36:13.304Z,2.31
2022-12-19T23:38:40.716Z,2.32
2022-12-19T23:41:08.778Z,2.33
2022-12-19T23:43:35.987Z,2.34
2022-12-19T23:46:07.133Z,2.33
2022-12-19T23:48:34.107Z,2.32
2022-12-19T23:51:01.883Z,2.30
2022-12-19T23:53:28.805Z,2.28
2022-12-19T23:55:55.596Z,2.26
2022-12-19T23:58:24.819Z,2.24
